Time;durP1;ratioP1;P1;durP2;ratioP2;P2;SDS_P1;SDS_P2;PMS_P1;PMS_P2;Temp;Humidity;BMP_temperature;BMP_pressure;BME280_temperature;BME280_humidity;BME280_pressure;Samples;Min_cycle;Max_cycle;Signal;HPM_P1;HPM_P2
2023/09/30 00:00:42;;;;;;;253.17;91.87;;;;;;;;;;4994249;28;20975;-46
2023/09/30 00:03:10;;;;;;;249.87;89.00;;;;;;;;;;4994354;28;20435;-48
2023/09/30 00:05:36;;;;;;;249.70;90.90;;;;;;;;;;4986833;28;20408;-47
2023/09/30 00:08:02;;;;;;;250.93;90.57;;;;;;;;;;4994361;28;20489;-45
2023/09/30 00:10:30;;;;;;;250.13;89.10;;;;;;;;;;4993284;28;20526;-47
2023/09/30 00:12:56;;;;;;;251.17;91.13;;;;;;;;;;4994410;28;20522;-47
2023/09/30 00:15:22;;;;;;;248.30;89.30;;;;;;;;;;4994372;28;20503;-46
2023/09/30 00:17:48;;;;;;;250.00;91.50;;;;;;;;;;4994090;28;20420;-46
2023/09/30 00:20:17;;;;;;;251.33;90.07;;;;;;;;;;4993925;28;20464;-48
2023/09/30 00:22:43;;;;;;;249.67;90.50;;;;;;;;;;4994116;28;20443;-46
2023/09/30 00:25:10;;;;;;;247.17;87.17;;;;;;;;;;4994164;28;20468;-48
2023/09/30 00:27:36;;;;;;;248.63;89.53;;;;;;;;;;4994213;28;20416;-47
2023/09/30 00:30:03;;;;;;;249.17;89.00;;;;;;;;;;4993918;28;20419;-46
2023/09/30 00:32:29;;;;;;;248.77;90.33;;;;;;;;;;4993702;28;20446;-46
2023/09/30 00:34:55;;;;;;;249.17;88.33;;;;;;;;;;4993972;28;20422;-47
2023/09/30 00:37:22;;;;;;;252.20;93.17;;;;;;;;;;4993900;28;20423;-46
2023/09/30 00:39:47;;;;;;;248.77;87.37;;;;;;;;;;4993821;28;20830;-46
2023/09/30 00:42:13;;;;;;;249.27;90.43;;;;;;;;;;4993449;28;20428;-47
2023/09/30 00:44:39;;;;;;;250.20;89.90;;;;;;;;;;4993505;28;20872;-45
2023/09/30 00:47:08;;;;;;;247.37;88.37;;;;;;;;;;4993874;28;20419;-47
2023/09/30 00:49:34;;;;;;;249.47;88.00;;;;;;;;;;4985609;28;20438;-47
2023/09/30 00:52:02;;;;;;;244.97;85.97;;;;;;;;;;4993587;28;20877;-46
2023/09/30 00:54:28;;;;;;;249.47;90.27;;;;;;;;;;4993605;28;20412;-45
2023/09/30 00:56:56;;;;;;;247.87;87.23;;;;;;;;;;4993985;28;20895;-45
2023/09/30 00:59:22;;;;;;;251.17;92.30;;;;;;;;;;4993265;28;20420;-46
2023/09/30 01:01:48;;;;;;;248.07;87.67;;;;;;;;;;4993395;28;20414;-46
2023/09/30 01:04:15;;;;;;;247.93;86.57;;;;;;;;;;4993059;28;20411;-46
2023/09/30 01:06:41;;;;;;;248.13;86.00;;;;;;;;;;4992988;28;20469;-46
2023/09/30 01:09:12;;;;;;;247.97;88.77;;;;;;;;;;4993374;28;20408;-47
2023/09/30 01:11:38;;;;;;;246.63;85.50;;;;;;;;;;4985624;28;20405;-45
2023/09/30 01:14:04;;;;;;;250.57;90.33;;;;;;;;;;4993182;28;20420;-46
2023/09/30 01:16:30;;;;;;;249.43;89.63;;;;;;;;;;4993174;28;20415;-45
2023/09/30 01:18:56;;;;;;;249.13;87.97;;;;;;;;;;4993025;28;20419;-46
2023/09/30 01:21:23;;;;;;;249.27;89.40;;;;;;;;;;4992634;28;20477;-47
2023/09/30 01:23:49;;;;;;;248.27;87.70;;;;;;;;;;4992917;28;20438;-47
2023/09/30 01:26:15;;;;;;;250.27;90.57;;;;;;;;;;4992903;28;20422;-47
2023/09/30 01:28:41;;;;;;;248.97;87.87;;;;;;;;;;4992792;28;20728;-46
2023/09/30 01:31:07;;;;;;;247.37;86.03;;;;;;;;;;4992847;28;20439;-45
2023/09/30 01:33:33;;;;;;;250.73;92.30;;;;;;;;;;4992944;28;20436;-46
2023/09/30 01:35:59;;;;;;;248.27;88.43;;;;;;;;;;4992904;28;20811;-45
2023/09/30 01:38:26;;;;;;;249.17;89.87;;;;;;;;;;4992668;28;20469;-45
2023/09/30 01:40:54;;;;;;;253.07;91.77;;;;;;;;;;4992882;28;20514;-47
2023/09/30 01:43:20;;;;;;;245.83;85.07;;;;;;;;;;4992639;28;20435;-46
2023/09/30 01:45:45;;;;;;;249.53;87.67;;;;;;;;;;4992555;28;20477;-47
2023/09/30 01:48:11;;;;;;;248.97;88.37;;;;;;;;;;4992644;28;20416;-46
2023/09/30 01:50:38;;;;;;;250.23;88.87;;;;;;;;;;4992044;28;20412;-47
2023/09/30 01:53:06;;;;;;;246.90;84.90;;;;;;;;;;4977779;28;20433;-46
2023/09/30 01:55:32;;;;;;;247.57;85.87;;;;;;;;;;4983984;28;20422;-47
2023/09/30 01:57:58;;;;;;;247.33;85.57;;;;;;;;;;4985644;28;20771;-46
2023/09/30 02:00:24;;;;;;;248.23;85.67;;;;;;;;;;4975879;28;20498;-46
2023/09/30 02:02:50;;;;;;;247.10;86.47;;;;;;;;;;4992359;28;20769;-47
2023/09/30 02:05:16;;;;;;;249.33;88.67;;;;;;;;;;4974015;28;20415;-45
2023/09/30 02:07:42;;;;;;;247.87;86.37;;;;;;;;;;4973517;28;20419;-45
2023/09/30 02:10:08;;;;;;;247.60;87.20;;;;;;;;;;4983215;28;20918;-46
2023/09/30 02:12:34;;;;;;;248.37;89.10;;;;;;;;;;4985694;28;20435;-47
2023/09/30 02:15:00;;;;;;;247.67;86.67;;;;;;;;;;4975475;28;21008;-45
2023/09/30 02:17:26;;;;;;;248.70;89.07;;;;;;;;;;4992565;28;20826;-46
2023/09/30 02:19:53;;;;;;;249.23;89.57;;;;;;;;;;4974211;28;21038;-48
2023/09/30 02:22:19;;;;;;;245.17;83.37;;;;;;;;;;4986679;28;20434;-46
2023/09/30 02:24:45;;;;;;;249.40;87.20;;;;;;;;;;4982140;28;20406;-47
2023/09/30 02:27:11;;;;;;;247.77;84.90;;;;;;;;;;4978758;28;20404;-46
2023/09/30 02:29:37;;;;;;;247.80;85.90;;;;;;;;;;4989190;28;20430;-47
2023/09/30 02:32:03;;;;;;;247.07;86.80;;;;;;;;;;4991838;28;20435;-45
2023/09/30 02:34:31;;;;;;;246.43;83.67;;;;;;;;;;4996089;28;20422;-46
2023/09/30 02:36:57;;;;;;;249.60;87.33;;;;;;;;;;4996189;28;20422;-46
2023/09/30 02:39:23;;;;;;;249.97;88.03;;;;;;;;;;4988625;28;20784;-45
2023/09/30 02:41:50;;;;;;;246.63;85.30;;;;;;;;;;4995805;28;20438;-45
2023/09/30 02:44:16;;;;;;;245.30;83.80;;;;;;;;;;4995915;28;20446;-46
2023/09/30 02:46:42;;;;;;;247.93;86.93;;;;;;;;;;4996004;28;20427;-47
2023/09/30 02:49:08;;;;;;;248.70;87.80;;;;;;;;;;4995945;28;20454;-45
2023/09/30 02:51:34;;;;;;;247.63;86.00;;;;;;;;;;4987644;28;20446;-46
2023/09/30 02:54:00;;;;;;;249.47;87.83;;;;;;;;;;4995669;28;20784;-46
2023/09/30 02:56:28;;;;;;;250.03;87.57;;;;;;;;;;4995799;28;20415;-46
2023/09/30 02:58:54;;;;;;;248.30;86.30;;;;;;;;;;4995791;28;20902;-46
2023/09/30 03:01:20;;;;;;;250.13;90.63;;;;;;;;;;4995235;28;20473;-45
2023/09/30 03:03:46;;;;;;;247.47;90.00;;;;;;;;;;4995736;28;20432;-46
2023/09/30 03:06:12;;;;;;;247.03;88.13;;;;;;;;;;4995484;28;20418;-46
2023/09/30 03:08:38;;;;;;;248.03;89.90;;;;;;;;;;4995458;28;20419;-45
2023/09/30 03:11:05;;;;;;;248.07;87.10;;;;;;;;;;4995351;28;20421;-46
2023/09/30 03:13:31;;;;;;;249.40;89.77;;;;;;;;;;4995384;28;20522;-46
2023/09/30 03:15:57;;;;;;;249.00;90.60;;;;;;;;;;4995404;28;20417;-45
2023/09/30 03:18:26;;;;;;;248.80;89.73;;;;;;;;;;4995446;28;20413;-46
2023/09/30 03:20:56;;;;;;;249.10;90.60;;;;;;;;;;4995023;28;20493;-45
2023/09/30 03:23:22;;;;;;;247.90;88.23;;;;;;;;;;4995398;28;20447;-47
2023/09/30 03:25:48;;;;;;;246.30;85.87;;;;;;;;;;4995186;28;20416;-46
2023/09/30 03:28:14;;;;;;;248.50;89.97;;;;;;;;;;4995120;28;20784;-46
2023/09/30 03:30:41;;;;;;;249.83;90.23;;;;;;;;;;4994926;28;20415;-46
2023/09/30 03:33:07;;;;;;;244.87;82.93;;;;;;;;;;4995001;28;20447;-45
2023/09/30 03:35:33;;;;;;;249.27;88.63;;;;;;;;;;4995015;28;20434;-46
2023/09/30 03:38:00;;;;;;;246.67;86.13;;;;;;;;;;4995349;28;20896;-46
2023/09/30 03:40:28;;;;;;;246.63;85.47;;;;;;;;;;4994780;28;20463;-48
2023/09/30 03:42:55;;;;;;;245.60;88.10;;;;;;;;;;4994912;28;20463;-45
2023/09/30 03:45:21;;;;;;;245.83;87.23;;;;;;;;;;4993351;28;20942;-45
2023/09/30 03:47:47;;;;;;;245.47;83.97;;;;;;;;;;4994974;28;20911;-47
2023/09/30 03:50:16;;;;;;;248.83;90.23;;;;;;;;;;4994567;28;20453;-45
2023/09/30 03:52:47;;;;;;;247.57;86.83;;;;;;;;;;4994591;28;20467;-46
2023/09/30 03:55:15;;;;;;;247.10;83.90;;;;;;;;;;4994695;28;20982;-46
2023/09/30 03:57:41;;;;;;;244.67;83.63;;;;;;;;;;4994901;28;20462;-46
2023/09/30 04:00:13;;;;;;;244.70;82.60;;;;;;;;;;4994618;28;20477;-46
2023/09/30 04:02:39;;;;;;;249.50;88.50;;;;;;;;;;4990841;28;20525;-47
2023/09/30 04:05:05;;;;;;;245.27;83.80;;;;;;;;;;4994540;28;20523;-45
2023/09/30 04:07:31;;;;;;;245.53;87.23;;;;;;;;;;4994434;28;20414;-45
2023/09/30 04:09:57;;;;;;;243.23;83.03;;;;;;;;;;4994424;28;20412;-45
2023/09/30 04:12:23;;;;;;;246.10;88.30;;;;;;;;;;4994019;28;20474;-45
2023/09/30 04:14:50;;;;;;;250.13;89.20;;;;;;;;;;4993495;28;20443;-46
2023/09/30 04:17:15;;;;;;;245.87;86.30;;;;;;;;;;4993302;28;20427;-46
2023/09/30 04:19:41;;;;;;;247.00;88.93;;;;;;;;;;4986315;28;20419;-45
2023/09/30 04:22:08;;;;;;;248.47;86.67;;;;;;;;;;4978471;28;20528;-46
2023/09/30 04:24:34;;;;;;;248.17;90.33;;;;;;;;;;4994173;28;20406;-45
2023/09/30 04:27:03;;;;;;;247.43;85.87;;;;;;;;;;4974859;28;20411;-47
2023/09/30 04:29:29;;;;;;;246.13;87.93;;;;;;;;;;4990470;28;20502;-47
2023/09/30 04:31:55;;;;;;;248.47;88.07;;;;;;;;;;4993307;28;20780;-45
2023/09/30 04:34:21;;;;;;;245.93;85.83;;;;;;;;;;4986139;28;20412;-47
2023/09/30 04:36:48;;;;;;;249.87;90.63;;;;;;;;;;4978541;28;20458;-45
2023/09/30 04:39:15;;;;;;;247.73;88.40;;;;;;;;;;4993806;28;20413;-47
2023/09/30 04:41:41;;;;;;;248.03;88.93;;;;;;;;;;4974401;28;20460;-46
2023/09/30 04:44:09;;;;;;;246.77;87.77;;;;;;;;;;4989910;28;20435;-45
2023/09/30 04:46:35;;;;;;;244.30;85.77;;;;;;;;;;4981889;28;20409;-46
2023/09/30 04:49:04;;;;;;;247.67;88.63;;;;;;;;;;4982487;28;20418;-46
2023/09/30 04:51:33;;;;;;;248.77;90.10;;;;;;;;;;4989562;28;20492;-46
2023/09/30 04:53:59;;;;;;;246.37;87.33;;;;;;;;;;4974881;28;20513;-46
2023/09/30 04:56:25;;;;;;;244.47;85.67;;;;;;;;;;4993469;28;20485;-46
2023/09/30 04:58:52;;;;;;;249.57;90.07;;;;;;;;;;4977119;28;20453;-45
2023/09/30 05:01:18;;;;;;;246.37;86.47;;;;;;;;;;4986219;28;20552;-46
2023/09/30 05:03:44;;;;;;;247.83;87.37;;;;;;;;;;4985193;28;20432;-46
2023/09/30 05:06:11;;;;;;;245.20;84.33;;;;;;;;;;4978372;28;20993;-46
2023/09/30 05:08:37;;;;;;;248.27;88.47;;;;;;;;;;4992999;28;20413;-46
2023/09/30 05:11:04;;;;;;;246.80;86.97;;;;;;;;;;4973899;28;20410;-47
2023/09/30 05:13:30;;;;;;;248.53;89.07;;;;;;;;;;4990343;28;20528;-47
2023/09/30 05:15:56;;;;;;;247.23;86.33;;;;;;;;;;4981329;28;20503;-46
2023/09/30 05:18:23;;;;;;;248.00;88.00;;;;;;;;;;4981700;28;20506;-45
2023/09/30 05:20:50;;;;;;;250.00;91.10;;;;;;;;;;4988875;28;21010;-47
2023/09/30 05:23:17;;;;;;;247.37;87.63;;;;;;;;;;4973856;28;20418;-46
2023/09/30 05:25:43;;;;;;;247.57;87.33;;;;;;;;;;4993784;28;20832;-46
2023/09/30 05:28:11;;;;;;;248.00;88.77;;;;;;;;;;4976959;28;20487;-46
2023/09/30 05:30:37;;;;;;;245.37;83.00;;;;;;;;;;4985481;28;20421;-46
2023/09/30 05:33:03;;;;;;;247.67;85.90;;;;;;;;;;4992451;28;20437;-45
2023/09/30 05:35:32;;;;;;;248.87;88.97;;;;;;;;;;4989001;28;20939;-46
2023/09/30 05:37:58;;;;;;;243.57;82.00;;;;;;;;;;4992234;28;20416;-45
2023/09/30 05:40:30;;;;;;;247.77;87.40;;;;;;;;;;4993194;28;20829;-45
2023/09/30 05:42:59;;;;;;;247.87;88.07;;;;;;;;;;4991051;28;20432;-48
2023/09/30 05:45:28;;;;;;;246.37;85.23;;;;;;;;;;4992304;28;20427;-46
2023/09/30 05:47:57;;;;;;;245.60;86.30;;;;;;;;;;4983341;28;20833;-45
2023/09/30 05:50:26;;;;;;;250.27;89.87;;;;;;;;;;4979144;28;20418;-45
2023/09/30 05:52:53;;;;;;;247.83;88.93;;;;;;;;;;4990095;28;20872;-46
2023/09/30 05:55:22;;;;;;;249.23;90.87;;;;;;;;;;4990161;28;20405;-46
2023/09/30 05:57:54;;;;;;;246.67;88.47;;;;;;;;;;4992321;28;20411;-45
2023/09/30 06:00:21;;;;;;;246.03;88.07;;;;;;;;;;4977183;28;20874;-47
2023/09/30 06:02:51;;;;;;;246.47;87.50;;;;;;;;;;4984221;28;20444;-45
2023/09/30 06:05:22;;;;;;;246.53;87.00;;;;;;;;;;4984746;28;20794;-46
2023/09/30 06:07:48;;;;;;;246.57;85.07;;;;;;;;;;4976822;28;20421;-46
2023/09/30 06:10:18;;;;;;;248.00;87.80;;;;;;;;;;4991804;28;20408;-47
2023/09/30 06:12:44;;;;;;;245.20;85.10;;;;;;;;;;4972951;28;20801;-46
2023/09/30 06:15:10;;;;;;;246.83;86.53;;;;;;;;;;4989421;28;20447;-47
2023/09/30 06:17:36;;;;;;;247.17;88.33;;;;;;;;;;4979910;28;20424;-46
2023/09/30 06:20:09;;;;;;;248.53;91.10;;;;;;;;;;4981210;28;20465;-45
2023/09/30 06:22:35;;;;;;;248.97;89.37;;;;;;;;;;4986704;28;20999;-46
2023/09/30 06:25:04;;;;;;;249.53;88.57;;;;;;;;;;4974553;28;20456;-46
2023/09/30 06:27:31;;;;;;;247.27;87.47;;;;;;;;;;4992409;28;20950;-47
2023/09/30 06:29:57;;;;;;;247.97;88.20;;;;;;;;;;4976496;28;20415;-46
2023/09/30 06:32:23;;;;;;;248.77;87.20;;;;;;;;;;4991537;28;20493;-47
2023/09/30 06:34:49;;;;;;;250.00;89.53;;;;;;;;;;4982771;28;20476;-46
2023/09/30 06:37:15;;;;;;;247.57;86.10;;;;;;;;;;4978331;28;20478;-45
2023/09/30 06:39:41;;;;;;;249.70;91.57;;;;;;;;;;4989552;28;20432;-45
2023/09/30 06:42:07;;;;;;;250.37;89.23;;;;;;;;;;4991817;28;20486;-46
2023/09/30 06:44:33;;;;;;;248.20;88.30;;;;;;;;;;4992020;28;20923;-45
2023/09/30 06:46:59;;;;;;;250.83;90.50;;;;;;;;;;4992065;28;20928;-46
2023/09/30 06:49:25;;;;;;;250.20;89.43;;;;;;;;;;4991160;28;20419;-45
2023/09/30 06:51:51;;;;;;;251.93;91.47;;;;;;;;;;4986210;28;20412;-45
2023/09/30 06:54:17;;;;;;;250.10;90.17;;;;;;;;;;4991915;28;20415;-45
2023/09/30 06:56:43;;;;;;;252.83;91.07;;;;;;;;;;4992138;28;20801;-46
2023/09/30 06:59:09;;;;;;;252.27;94.23;;;;;;;;;;4991834;28;20407;-47
2023/09/30 07:01:35;;;;;;;252.40;92.47;;;;;;;;;;4991662;28;20468;-47
2023/09/30 07:04:01;;;;;;;253.40;93.87;;;;;;;;;;4991817;28;20511;-46
2023/09/30 07:06:27;;;;;;;255.60;98.47;;;;;;;;;;4991714;28;20422;-47
2023/09/30 07:08:53;;;;;;;255.57;96.60;;;;;;;;;;4991828;28;20418;-45
2023/09/30 07:11:34;;;;;;;255.93;98.10;;;;;;;;;;4991669;28;20482;-48
2023/09/30 07:14:00;;;;;;;254.23;94.23;;;;;;;;;;4991797;28;20800;-47
2023/09/30 07:16:26;;;;;;;258.07;103.87;;;;;;;;;;4989882;28;20420;-46
2023/09/30 07:18:52;;;;;;;255.47;98.33;;;;;;;;;;4991688;28;20429;-46
2023/09/30 07:21:18;;;;;;;256.93;99.77;;;;;;;;;;4995134;28;20466;-48
2023/09/30 07:23:44;;;;;;;258.87;102.30;;;;;;;;;;4995349;28;20421;-47
2023/09/30 07:26:10;;;;;;;255.83;99.63;;;;;;;;;;4995242;28;20412;-47
2023/09/30 07:28:36;;;;;;;260.83;107.70;;;;;;;;;;4995347;28;20463;-46
2023/09/30 07:31:02;;;;;;;259.77;105.63;;;;;;;;;;4994866;28;20712;-45
2023/09/30 07:33:29;;;;;;;257.40;101.07;;;;;;;;;;4995092;28;20433;-46
2023/09/30 07:35:55;;;;;;;260.87;106.93;;;;;;;;;;4995424;28;20478;-47
2023/09/30 07:38:22;;;;;;;263.03;109.67;;;;;;;;;;4994991;28;20413;-46
2023/09/30 07:40:49;;;;;;;264.97;113.03;;;;;;;;;;4995015;28;20986;-47
2023/09/30 07:43:15;;;;;;;256.83;102.90;;;;;;;;;;4994895;28;20818;-47
2023/09/30 07:45:43;;;;;;;255.00;101.33;;;;;;;;;;4994923;28;20833;-46
2023/09/30 07:48:09;;;;;;;261.27;106.63;;;;;;;;;;4995239;28;20450;-47
2023/09/30 07:50:36;;;;;;;266.27;109.07;;;;;;;;;;4994960;28;20421;-47
2023/09/30 07:53:02;;;;;;;261.33;107.73;;;;;;;;;;4994700;28;20465;-47
2023/09/30 07:55:28;;;;;;;259.13;104.43;;;;;;;;;;4994805;28;20484;-45
2023/09/30 07:57:56;;;;;;;260.73;105.87;;;;;;;;;;4994686;28;20442;-47
2023/09/30 08:00:23;;;;;;;256.97;100.23;;;;;;;;;;4994714;28;20550;-45
2023/09/30 08:02:50;;;;;;;256.03;101.43;;;;;;;;;;4994458;28;20425;-46
2023/09/30 08:05:17;;;;;;;255.20;99.00;;;;;;;;;;4994949;28;20409;-46
2023/09/30 08:07:43;;;;;;;252.83;99.07;;;;;;;;;;4994495;28;20424;-45
2023/09/30 08:10:13;;;;;;;253.07;98.50;;;;;;;;;;4992836;28;20428;-46
2023/09/30 08:12:39;;;;;;;255.57;102.17;;;;;;;;;;4993848;28;20940;-46
2023/09/30 08:15:05;;;;;;;253.67;100.40;;;;;;;;;;4993478;28;20410;-46
2023/09/30 08:17:33;;;;;;;251.00;93.90;;;;;;;;;;4975154;28;20461;-46
2023/09/30 08:19:59;;;;;;;253.43;96.67;;;;;;;;;;4991665;28;20829;-46
2023/09/30 08:22:27;;;;;;;250.07;94.27;;;;;;;;;;4981275;28;20429;-46
2023/09/30 08:24:54;;;;;;;254.77;99.50;;;;;;;;;;4984117;28;20820;-46
2023/09/30 08:27:20;;;;;;;251.30;94.07;;;;;;;;;;4989216;28;20412;-47
2023/09/30 08:29:46;;;;;;;248.67;93.97;;;;;;;;;;4975410;28;20782;-45
2023/09/30 08:32:12;;;;;;;253.30;98.20;;;;;;;;;;4993877;28;20418;-48
2023/09/30 08:34:39;;;;;;;247.80;90.50;;;;;;;;;;4993817;28;20419;-45
2023/09/30 08:37:04;;;;;;;250.20;92.87;;;;;;;;;;4981638;28;20427;-47
2023/09/30 08:39:30;;;;;;;253.57;97.07;;;;;;;;;;4983077;28;20423;-48
2023/09/30 08:41:56;;;;;;;252.10;97.23;;;;;;;;;;4989089;28;20502;-45
2023/09/30 08:44:22;;;;;;;250.70;96.47;;;;;;;;;;4989448;28;20432;-46
2023/09/30 08:46:49;;;;;;;255.17;101.53;;;;;;;;;;4974645;28;20399;-45
2023/09/30 08:49:15;;;;;;;252.07;99.67;;;;;;;;;;4990599;28;20918;-45
2023/09/30 08:51:42;;;;;;;256.13;103.53;;;;;;;;;;4981300;28;20977;-45
2023/09/30 08:54:08;;;;;;;253.57;97.20;;;;;;;;;;4982539;28;20815;-46
2023/09/30 08:56:34;;;;;;;255.00;98.57;;;;;;;;;;4992952;28;20414;-46
2023/09/30 08:59:01;;;;;;;255.47;101.00;;;;;;;;;;4993356;28;20892;-47
2023/09/30 09:01:28;;;;;;;263.97;110.03;;;;;;;;;;4992447;28;20463;-47
2023/09/30 09:03:54;;;;;;;257.27;104.33;;;;;;;;;;4976601;28;20632;-47
2023/09/30 09:06:21;;;;;;;259.40;107.13;;;;;;;;;;4985083;28;20462;-46
2023/09/30 09:08:47;;;;;;;259.10;106.93;;;;;;;;;;4985032;28;20403;-48
2023/09/30 09:11:17;;;;;;;260.50;108.83;;;;;;;;;;4977969;28;20422;-47
2023/09/30 09:13:49;;;;;;;259.57;108.57;;;;;;;;;;4992756;28;20470;-46
2023/09/30 09:16:16;;;;;;;258.60;108.50;;;;;;;;;;4974100;28;20460;-46
2023/09/30 09:18:42;;;;;;;255.27;107.10;;;;;;;;;;4991044;28;20810;-47
2023/09/30 09:21:12;;;;;;;255.40;108.27;;;;;;;;;;4979832;28;20995;-47
2023/09/30 09:23:42;;;;;;;257.27;110.53;;;;;;;;;;4983438;28;20428;-48
2023/09/30 09:26:08;;;;;;;257.03;111.03;;;;;;;;;;4987315;28;20507;-46
2023/09/30 09:28:36;;;;;;;251.90;105.03;;;;;;;;;;4975905;28;20404;-46
2023/09/30 09:31:03;;;;;;;256.13;111.33;;;;;;;;;;4993119;28;20416;-46
2023/09/30 09:33:37;;;;;;;257.90;110.73;;;;;;;;;;4992815;28;20835;-47
2023/09/30 09:36:03;;;;;;;256.77;112.20;;;;;;;;;;4977809;28;20500;-47
2023/09/30 09:38:43;;;;;;;259.97;117.17;;;;;;;;;;4984436;28;20412;-46
2023/09/30 09:41:10;;;;;;;259.50;119.77;;;;;;;;;;4983737;28;20464;-46
2023/09/30 09:43:37;;;;;;;259.17;117.10;;;;;;;;;;4978251;28;20424;-46
2023/09/30 09:46:07;;;;;;;257.73;114.73;;;;;;;;;;4991678;28;20408;-47
2023/09/30 09:48:35;;;;;;;259.40;119.47;;;;;;;;;;4973322;28;20397;-47
2023/09/30 09:51:02;;;;;;;257.63;118.03;;;;;;;;;;4990883;28;20775;-47
2023/09/30 09:53:31;;;;;;;256.87;118.03;;;;;;;;;;4979006;28;20432;-47
2023/09/30 09:55:57;;;;;;;258.20;118.50;;;;;;;;;;4983299;28;20828;-46
2023/09/30 09:58:24;;;;;;;259.10;121.13;;;;;;;;;;4986861;28;20421;-46
2023/09/30 10:00:51;;;;;;;260.37;124.50;;;;;;;;;;4974962;28;20484;-47
2023/09/30 10:03:17;;;;;;;257.77;123.80;;;;;;;;;;4992587;28;20920;-46
2023/09/30 10:05:43;;;;;;;257.60;121.40;;;;;;;;;;4974756;28;20470;-46
2023/09/30 10:08:13;;;;;;;257.03;124.50;;;;;;;;;;4986454;28;20408;-47
2023/09/30 10:10:40;;;;;;;264.63;135.23;;;;;;;;;;4980702;28;20448;-47
2023/09/30 10:13:06;;;;;;;257.37;126.30;;;;;;;;;;4978312;28;20439;-46
2023/09/30 10:15:36;;;;;;;260.30;126.70;;;;;;;;;;4990522;28;21656;-47
2023/09/30 10:18:06;;;;;;;261.20;128.97;;;;;;;;;;4971702;28;20397;-46
2023/09/30 10:20:33;;;;;;;261.23;129.20;;;;;;;;;;4991653;28;20489;-47
2023/09/30 10:23:34;;;;;;;256.87;124.80;;;;;;;;;;4977063;28;20437;-46
2023/09/30 10:26:13;;;;;;;255.87;121.70;;;;;;;;;;4961009;28;20514;-46
2023/09/30 10:28:46;;;;;;;259.70;125.60;;;;;;;;;;4978778;28;20419;-46
2023/09/30 10:31:17;;;;;;;256.77;121.73;;;;;;;;;;4984621;28;20407;-47
2023/09/30 10:34:04;;;;;;;255.50;118.30;;;;;;;;;;4985423;28;20487;-46
2023/09/30 10:36:39;;;;;;;256.53;116.33;;;;;;;;;;4978638;28;20955;-46
2023/09/30 10:39:08;;;;;;;252.70;110.70;;;;;;;;;;4989363;28;20454;-46
2023/09/30 10:41:50;;;;;;;252.17;106.50;;;;;;;;;;4972633;28;20452;-48
2023/09/30 10:44:29;;;;;;;253.30;106.57;;;;;;;;;;4972967;28;20424;-47
2023/09/30 10:46:56;;;;;;;255.00;108.87;;;;;;;;;;4991584;28;20462;-46
2023/09/30 10:49:25;;;;;;;256.27;110.37;;;;;;;;;;4977205;28;20501;-48
2023/09/30 10:51:55;;;;;;;252.00;104.23;;;;;;;;;;4983747;28;20484;-45
2023/09/30 10:54:31;;;;;;;252.30;105.90;;;;;;;;;;4986738;28;20474;-47
2023/09/30 10:56:59;;;;;;;252.87;106.73;;;;;;;;;;4981729;28;20418;-47
2023/09/30 10:59:30;;;;;;;254.80;110.30;;;;;;;;;;4994498;28;20399;-47
2023/09/30 11:01:56;;;;;;;256.73;116.20;;;;;;;;;;4976289;28;20975;-46
2023/09/30 11:04:22;;;;;;;254.70;117.13;;;;;;;;;;4994123;28;20546;-46
2023/09/30 11:06:50;;;;;;;258.10;123.40;;;;;;;;;;4982162;28;20412;-47
2023/09/30 11:09:20;;;;;;;256.37;123.70;;;;;;;;;;4985910;28;20420;-48
2023/09/30 11:11:50;;;;;;;257.20;126.93;;;;;;;;;;4988920;28;20501;-47
2023/09/30 11:14:31;;;;;;;258.60;133.70;;;;;;;;;;4979624;28;20809;-47
2023/09/30 11:17:03;;;;;;;257.17;131.13;;;;;;;;;;4994616;28;20403;-46
2023/09/30 11:19:37;;;;;;;253.23;125.70;;;;;;;;;;4978783;28;20439;-47
2023/09/30 11:22:03;;;;;;;255.60;128.10;;;;;;;;;;4976848;28;20477;-47
2023/09/30 11:24:29;;;;;;;253.80;123.97;;;;;;;;;;4990091;28;20927;-46
2023/09/30 11:26:56;;;;;;;255.20;125.37;;;;;;;;;;4988942;28;20439;-48
2023/09/30 11:29:22;;;;;;;254.97;123.53;;;;;;;;;;4994798;28;20944;-46
2023/09/30 11:31:50;;;;;;;256.63;125.40;;;;;;;;;;4994713;28;20927;-46
2023/09/30 11:34:17;;;;;;;252.87;118.13;;;;;;;;;;4995422;28;20414;-46
2023/09/30 11:36:50;;;;;;;255.73;124.80;;;;;;;;;;4984203;28;20518;-46
2023/09/30 11:39:24;;;;;;;256.97;125.63;;;;;;;;;;4994574;28;20431;-46
2023/09/30 11:41:52;;;;;;;259.00;128.90;;;;;;;;;;4994286;28;21012;-47
2023/09/30 11:44:18;;;;;;;254.57;125.13;;;;;;;;;;4994532;28;20436;-47
2023/09/30 11:47:02;;;;;;;256.70;126.37;;;;;;;;;;4990806;28;20885;-47
2023/09/30 11:49:35;;;;;;;253.07;120.60;;;;;;;;;;4978260;28;20416;-47
2023/09/30 11:52:02;;;;;;;255.90;123.70;;;;;;;;;;4994713;28;20778;-47
2023/09/30 11:54:30;;;;;;;255.57;122.43;;;;;;;;;;4979260;28;20411;-47
2023/09/30 11:56:56;;;;;;;255.47;123.43;;;;;;;;;;4994652;28;20799;-48
2023/09/30 11:59:22;;;;;;;254.43;127.53;;;;;;;;;;4982987;28;20491;-48
2023/09/30 12:01:49;;;;;;;255.00;123.53;;;;;;;;;;4982662;28;20559;-46
2023/09/30 12:04:17;;;;;;;256.33;128.47;;;;;;;;;;4990455;28;20413;-47
2023/09/30 12:06:43;;;;;;;255.37;128.60;;;;;;;;;;4974498;28;20400;-46
2023/09/30 12:09:13;;;;;;;255.87;129.80;;;;;;;;;;4994619;28;20440;-47
2023/09/30 12:11:39;;;;;;;255.77;129.00;;;;;;;;;;4978553;28;20432;-47
2023/09/30 12:14:06;;;;;;;256.10;133.13;;;;;;;;;;4987077;28;20420;-46
2023/09/30 12:16:32;;;;;;;253.23;128.03;;;;;;;;;;4986288;28;20512;-47
2023/09/30 12:18:58;;;;;;;256.67;130.80;;;;;;;;;;4978847;28;20499;-47
2023/09/30 12:21:24;;;;;;;254.17;128.50;;;;;;;;;;4993941;28;20458;-47
2023/09/30 12:23:51;;;;;;;256.90;129.77;;;;;;;;;;4975150;28;20421;-47
2023/09/30 12:26:19;;;;;;;256.67;132.17;;;;;;;;;;4990617;28;20969;-49
2023/09/30 12:28:45;;;;;;;253.77;128.93;;;;;;;;;;4982054;28;20758;-47
2023/09/30 12:31:13;;;;;;;253.50;127.50;;;;;;;;;;4982480;28;20419;-48
2023/09/30 12:33:40;;;;;;;256.77;133.17;;;;;;;;;;4994086;28;20542;-47
2023/09/30 12:36:07;;;;;;;253.80;127.17;;;;;;;;;;4993784;28;20408;-47
2023/09/30 12:38:33;;;;;;;255.43;129.87;;;;;;;;;;4974788;28;20488;-46
2023/09/30 12:41:00;;;;;;;256.37;131.37;;;;;;;;;;4990440;28;20566;-46
2023/09/30 12:43:26;;;;;;;251.40;122.20;;;;;;;;;;4981642;28;20433;-47
2023/09/30 12:45:52;;;;;;;256.33;127.50;;;;;;;;;;4976566;28;20503;-46
2023/09/30 12:48:18;;;;;;;261.17;135.67;;;;;;;;;;4978352;28;20434;-47
2023/09/30 12:50:47;;;;;;;259.00;132.77;;;;;;;;;;4993806;28;20876;-47
2023/09/30 12:53:14;;;;;;;257.37;132.33;;;;;;;;;;4974567;28;20937;-47
2023/09/30 12:55:40;;;;;;;255.93;125.27;;;;;;;;;;4990951;28;20416;-47
2023/09/30 12:58:07;;;;;;;255.37;127.60;;;;;;;;;;4981351;28;20416;-47
2023/09/30 13:00:33;;;;;;;256.50;126.67;;;;;;;;;;4981987;28;20522;-47
2023/09/30 13:03:01;;;;;;;255.70;129.50;;;;;;;;;;4989392;28;20432;-47
2023/09/30 13:05:29;;;;;;;259.83;135.37;;;;;;;;;;4974653;28;20492;-49
2023/09/30 13:07:55;;;;;;;255.83;129.40;;;;;;;;;;4993575;28;20406;-48
2023/09/30 13:10:22;;;;;;;258.90;133.07;;;;;;;;;;4976999;28;20439;-48
2023/09/30 13:12:49;;;;;;;259.30;131.47;;;;;;;;;;4986090;28;20436;-47
2023/09/30 13:15:15;;;;;;;261.47;133.57;;;;;;;;;;4984808;28;20451;-47
2023/09/30 13:17:41;;;;;;;260.70;130.23;;;;;;;;;;4978151;28;20531;-46
2023/09/30 13:20:08;;;;;;;260.33;128.17;;;;;;;;;;4992744;28;20444;-46
2023/09/30 13:22:37;;;;;;;255.50;122.93;;;;;;;;;;4973814;28;20516;-48
2023/09/30 13:25:05;;;;;;;257.73;125.60;;;;;;;;;;4990439;28;20420;-46
2023/09/30 13:27:31;;;;;;;257.20;124.97;;;;;;;;;;4980821;28;20439;-48
2023/09/30 13:29:58;;;;;;;258.07;129.87;;;;;;;;;;4982330;28;20849;-47
2023/09/30 13:32:24;;;;;;;255.10;124.87;;;;;;;;;;4992337;28;20438;-47
2023/09/30 13:34:51;;;;;;;258.50;128.10;;;;;;;;;;4992038;28;20396;-46
2023/09/30 13:37:17;;;;;;;259.23;126.90;;;;;;;;;;4973747;28;20814;-47
2023/09/30 13:39:43;;;;;;;255.97;126.50;;;;;;;;;;4990029;28;20412;-46
2023/09/30 13:42:09;;;;;;;255.93;124.70;;;;;;;;;;4979956;28;20511;-45
2023/09/30 13:44:36;;;;;;;255.73;122.60;;;;;;;;;;4981910;28;20489;-46
2023/09/30 13:47:02;;;;;;;255.07;119.90;;;;;;;;;;4988343;28;20441;-47
2023/09/30 13:49:30;;;;;;;255.20;116.83;;;;;;;;;;4974133;28;20433;-46
2023/09/30 13:51:56;;;;;;;252.43;112.47;;;;;;;;;;4992916;28;20400;-47
2023/09/30 13:54:22;;;;;;;255.43;115.53;;;;;;;;;;4976279;28;20511;-46
2023/09/30 13:56:48;;;;;;;255.00;114.43;;;;;;;;;;4983704;28;20415;-46
2023/09/30 13:59:14;;;;;;;258.30;117.67;;;;;;;;;;4982253;28;20412;-49